Terminal Aerodrome Forecast
Issued by NWS

Home | Current Version | Previous Version | Text Only | Print | Product List | Glossary On
Versions: 1 2 3 4 5 6 7 8 9 10 11 12 13 14 15 16 17 18 19 20 21
000
FTUS41 KBTV 251720
TAFPBG
TAF
KPBG 251720Z 2518/2618 16007KT P6SM OVC050
     FM252100 19008KT P6SM -SHRA OVC030
     FM260000 21009KT P6SM OVC025
     FM260600 27008KT P6SM OVC030
     FM261500 29015G22KT P6SM OVC025=

USA.gov is the U.S. government's official web portal to all federal, state and local government web resources and services.